Time;durP1;ratioP1;P1;durP2;ratioP2;P2;SDS_P1;SDS_P2;PMS_P1;PMS_P2;Temp;Humidity;BMP_temperature;BMP_pressure;BME280_temperature;BME280_humidity;BME280_pressure;Samples;Min_cycle;Max_cycle;Signal;HPM_P1;HPM_P2
2024/02/25 00:00:25;;;;;;;4.20;1.70;;;;;;;-145.69;70.03;52388.94;5117737;27;20225;-79
2024/02/25 00:02:52;;;;;;;4.53;2.10;;;;;;;-145.69;69.53;52394.88;5115498;27;20201;-79
2024/02/25 00:05:19;;;;;;;2.63;1.77;;;;;;;-145.69;71.79;52365.16;5120557;27;20648;-80
2024/02/25 00:07:46;;;;;;;2.37;1.83;;;;;;;-145.69;71.59;52408.75;5117044;27;20292;-79
2024/02/25 00:10:13;;;;;;;3.70;1.80;;;;;;;-145.69;70.53;52406.75;5114465;28;20619;-80
2024/02/25 00:12:39;;;;;;;3.83;1.80;;;;;;;-145.69;71.07;52383.00;5114801;28;20201;-80
2024/02/25 00:15:06;;;;;;;1.97;1.63;;;;;;;-145.69;70.24;52379.03;5114583;28;20200;-80
2024/02/25 00:17:33;;;;;;;2.60;2.03;;;;;;;-145.69;71.31;52381.00;5116958;27;20648;-80
2024/02/25 00:19:59;;;;;;;4.00;2.07;;;;;;;-145.69;70.92;52418.63;5116334;27;20216;-80
2024/02/25 00:22:28;;;;;;;5.80;2.00;;;;;;;-145.69;71.45;52388.94;5122231;27;20196;-80
2024/02/25 00:24:55;;;;;;;2.43;1.63;;;;;;;-145.69;71.59;52381.00;5126255;27;20284;-80
2024/02/25 00:27:22;;;;;;;4.10;1.90;;;;;;;-145.69;71.09;52392.91;5117963;27;20197;-81
2024/02/25 00:29:48;;;;;;;3.43;2.00;;;;;;;-145.69;71.25;52345.38;5114808;28;20208;-78
2024/02/25 00:32:15;;;;;;;1.80;1.60;;;;;;;-145.69;70.43;52396.84;5114487;27;20201;-80
2024/02/25 00:34:41;;;;;;;3.63;2.30;;;;;;;-145.69;71.76;52377.06;5115719;27;20838;-79
2024/02/25 00:37:08;;;;;;;3.67;1.87;;;;;;;-145.69;71.46;52386.97;5116467;27;20529;-79
2024/02/25 00:39:34;;;;;;;2.00;1.77;;;;;;;-145.69;72.11;52345.38;5114077;28;20197;-79
2024/02/25 00:42:02;;;;;;;2.83;1.80;;;;;;;-145.69;72.95;52381.00;5114036;28;20230;-79
2024/02/25 00:44:32;;;;;;;5.77;2.37;;;;;;;-145.69;71.59;52353.28;5117407;27;20229;-80
2024/02/25 00:46:59;;;;;;;2.60;1.70;;;;;;;-145.69;71.53;52386.97;5114105;28;20194;-79
2024/02/25 00:49:26;;;;;;;2.57;1.73;;;;;;;-145.69;71.94;52396.84;5114294;27;20198;-80
2024/02/25 00:51:52;;;;;;;2.57;1.90;;;;;;;-145.69;71.58;52384.97;5111847;27;20251;-79
2024/02/25 00:54:19;;;;;;;4.77;2.40;;;;;;;-145.69;71.14;52384.97;5114707;27;20201;-79
2024/02/25 00:56:48;;;;;;;4.53;2.00;;;;;;;-145.69;72.19;52386.97;5112511;28;20255;-80
2024/02/25 00:59:16;;;;;;;2.13;1.70;;;;;;;-145.69;71.23;52381.00;5113747;27;20201;-79
2024/02/25 01:01:42;;;;;;;3.73;1.73;;;;;;;-145.69;72.17;52406.75;5112466;27;20228;-81
2024/02/25 01:04:09;;;;;;;4.63;2.13;;;;;;;-145.69;72.20;52371.13;5120447;27;20197;-79
2024/02/25 01:06:35;;;;;;;2.33;2.00;;;;;;;-145.69;72.38;52384.97;5113079;28;20205;-81
2024/02/25 01:09:02;;;;;;;5.10;2.07;;;;;;;-145.69;71.92;52321.59;5112624;28;20204;-79
2024/02/25 01:11:29;;;;;;;2.70;1.67;;;;;;;-145.69;71.82;52369.13;5112175;27;20208;-80
2024/02/25 01:13:58;;;;;;;3.07;1.90;;;;;;;-145.69;71.46;52369.13;5113435;28;20205;-80
2024/02/25 01:16:26;;;;;;;4.57;2.00;;;;;;;-145.69;70.94;52400.81;5112814;27;20198;-80
2024/02/25 01:18:52;;;;;;;3.67;1.57;;;;;;;-145.69;71.16;52396.84;5115978;27;20197;-80
2024/02/25 01:21:19;;;;;;;2.87;1.93;;;;;;;-145.69;70.97;52365.16;5112951;27;20224;-80
2024/02/25 01:23:45;;;;;;;3.77;2.10;;;;;;;-145.69;70.99;52357.25;5115848;27;20659;-80
2024/02/25 01:26:12;;;;;;;3.30;1.70;;;;;;;-145.69;70.41;52365.16;5112787;28;20197;-80
2024/02/25 01:28:39;;;;;;;2.77;1.90;;;;;;;-145.69;70.66;52383.00;5115981;27;20598;-80
2024/02/25 01:31:06;;;;;;;4.07;2.03;;;;;;;-145.69;70.78;52388.94;5112492;28;20201;-80
2024/02/25 01:33:33;;;;;;;1.77;1.30;;;;;;;-145.69;70.23;52353.28;5115787;27;20205;-80
2024/02/25 01:36:00;;;;;;;2.77;1.70;;;;;;;-145.69;70.26;52384.97;5112815;28;20193;-81
2024/02/25 01:38:26;;;;;;;3.53;1.80;;;;;;;-145.69;69.97;52388.94;5112902;28;20192;-81
2024/02/25 01:40:53;;;;;;;2.57;1.80;;;;;;;-145.69;69.75;52375.06;5112498;28;20221;-80
2024/02/25 01:43:19;;;;;;;1.60;1.50;;;;;;;-145.69;70.52;52398.84;5114253;27;20216;-81
2024/02/25 01:45:47;;;;;;;3.03;1.70;;;;;;;-145.69;70.18;52359.22;5117077;27;20204;-80
2024/02/25 01:48:18;;;;;;;2.30;1.53;;;;;;;-145.69;69.61;52400.81;5113915;27;20193;-80
2024/02/25 01:50:46;;;;;;;2.30;1.47;;;;;;;-145.69;69.10;52365.16;5112125;28;20221;-80
2024/02/25 01:53:13;;;;;;;3.27;2.10;;;;;;;-145.69;69.76;52375.06;5113086;28;20203;-79
2024/02/25 01:55:42;;;;;;;2.80;1.60;;;;;;;-145.69;70.18;52381.00;5112495;28;20259;-79
2024/02/25 01:58:10;;;;;;;2.07;1.60;;;;;;;-145.69;70.06;52386.97;5113248;28;20207;-80
2024/02/25 02:00:37;;;;;;;2.50;1.53;;;;;;;-145.69;70.58;52416.66;5112441;28;20204;-80
2024/02/25 02:03:04;;;;;;;4.20;1.80;;;;;;;-145.69;70.22;52388.94;5115911;27;20284;-80
2024/02/25 02:05:31;;;;;;;4.30;1.60;;;;;;;-145.69;70.14;52379.03;5092750;28;20209;-80
2024/02/25 02:07:59;;;;;;;4.90;1.70;;;;;;;-145.69;70.26;52381.00;5092620;28;20205;-80
2024/02/25 02:10:26;;;;;;;4.00;2.00;;;;;;;-145.69;69.54;52359.22;5101125;28;20644;-82
2024/02/25 02:12:52;;;;;;;1.83;1.50;;;;;;;-145.69;69.46;52353.28;5112460;28;20204;-83
2024/02/25 02:15:19;;;;;;;2.10;1.80;;;;;;;-145.69;68.94;52365.16;5112623;28;20208;-80
2024/02/25 02:17:46;;;;;;;2.90;1.87;;;;;;;-145.69;68.74;52412.69;5099261;28;20201;-82
2024/02/25 02:20:17;;;;;;;3.63;1.63;;;;;;;-145.69;69.66;52406.75;5112492;28;20224;-80
2024/02/25 02:22:46;;;;;;;2.37;1.70;;;;;;;-145.69;69.60;52384.97;5115639;28;20706;-82
2024/02/25 02:25:15;;;;;;;1.60;1.50;;;;;;;-145.69;69.96;52353.28;5112687;28;20185;-80
2024/02/25 02:27:42;;;;;;;2.23;1.77;;;;;;;-145.69;70.92;52365.16;5112942;27;20204;-82
2024/02/25 02:30:10;;;;;;;8.73;1.80;;;;;;;-145.69;70.62;52365.16;5112824;28;20201;-82
2024/02/25 02:32:38;;;;;;;2.43;1.70;;;;;;;-145.69;71.16;52373.09;5112656;28;20205;-82
2024/02/25 02:35:05;;;;;;;3.20;1.97;;;;;;;-145.69;71.69;52384.97;5112454;28;20243;-81
2024/02/25 02:37:32;;;;;;;2.63;1.90;;;;;;;-145.69;71.64;52341.41;5114747;28;20213;-82
2024/02/25 02:40:00;;;;;;;3.03;1.87;;;;;;;-145.69;71.50;52384.97;5113654;28;20210;-81
2024/02/25 02:42:29;;;;;;;3.40;1.87;;;;;;;-145.69;72.53;52369.13;5113929;28;20256;-82
2024/02/25 02:44:55;;;;;;;3.50;2.43;;;;;;;-145.69;72.14;52375.06;5119420;27;20225;-80
2024/02/25 02:47:23;;;;;;;3.37;2.20;;;;;;;-145.69;71.90;52408.75;5116087;27;20244;-82
2024/02/25 02:49:50;;;;;;;3.93;2.30;;;;;;;-145.69;72.29;52388.94;5114488;28;20575;-80
2024/02/25 02:52:16;;;;;;;3.97;2.27;;;;;;;-145.69;72.05;52371.13;5115933;28;20236;-80
2024/02/25 02:54:43;;;;;;;3.37;2.57;;;;;;;-145.69;73.25;52381.00;5118403;27;20194;-80
2024/02/25 02:57:11;;;;;;;5.93;2.70;;;;;;;-145.69;73.39;52373.09;5115860;28;20201;-81
2024/02/25 02:59:38;;;;;;;9.53;2.77;;;;;;;-145.69;72.54;52386.97;5116443;27;20202;-81
2024/02/25 03:02:05;;;;;;;4.37;2.60;;;;;;;-145.69;72.47;52381.00;5115848;28;20221;-81
2024/02/25 03:04:31;;;;;;;5.30;2.20;;;;;;;-145.69;71.54;52388.94;5115401;27;20228;-82
2024/02/25 03:06:58;;;;;;;3.70;2.37;;;;;;;-145.69;71.37;52353.28;5117996;27;20205;-82
2024/02/25 03:09:24;;;;;;;5.80;2.40;;;;;;;-145.69;71.42;52418.63;5116186;27;20202;-82
2024/02/25 03:11:51;;;;;;;3.03;1.97;;;;;;;-145.69;71.39;52361.22;5116116;28;20198;-81
2024/02/25 03:14:18;;;;;;;4.27;2.13;;;;;;;-145.69;70.56;52379.03;5115339;27;20247;-81
2024/02/25 03:16:45;;;;;;;3.40;2.37;;;;;;;-145.69;71.13;52355.28;5115241;28;20232;-81
2024/02/25 03:19:12;;;;;;;2.97;2.07;;;;;;;-145.69;71.05;52359.22;5114556;27;20202;-82
2024/02/25 03:21:42;;;;;;;3.53;2.30;;;;;;;-145.69;71.72;52361.22;5115751;28;20226;-82
2024/02/25 03:24:09;;;;;;;3.23;2.07;;;;;;;-145.69;71.59;52383.00;5115215;27;20209;-81
2024/02/25 03:26:35;;;;;;;5.07;2.27;;;;;;;-145.69;71.08;52369.13;5114968;28;20189;-81
2024/02/25 03:29:03;;;;;;;5.47;2.50;;;;;;;-145.69;71.39;52432.50;5115550;28;20522;-81
2024/02/25 03:31:30;;;;;;;2.43;1.90;;;;;;;-145.69;70.87;52381.00;5115058;28;20724;-81
2024/02/25 03:33:57;;;;;;;3.07;2.10;;;;;;;-145.69;71.34;52375.06;5118473;27;20197;-81
2024/02/25 03:36:23;;;;;;;3.17;1.97;;;;;;;-145.69;72.05;52369.13;5115740;28;20201;-82
2024/02/25 03:38:50;;;;;;;2.97;2.10;;;;;;;-145.69;72.48;52373.09;5118052;27;20201;-81
2024/02/25 03:41:16;;;;;;;6.20;2.33;;;;;;;-145.69;71.79;52386.97;5115543;28;20193;-81
2024/02/25 03:43:43;;;;;;;5.97;2.13;;;;;;;-145.69;71.33;52400.81;5118747;27;20208;-81
2024/02/25 03:46:11;;;;;;;4.70;2.10;;;;;;;-145.69;72.02;52412.69;5115358;28;20201;-81
2024/02/25 03:48:39;;;;;;;5.40;2.20;;;;;;;-145.69;71.45;52355.28;5116711;27;20208;-81
2024/02/25 03:51:05;;;;;;;3.73;2.47;;;;;;;-145.69;71.69;52384.97;5110599;28;20233;-81
2024/02/25 03:53:33;;;;;;;4.03;2.60;;;;;;;-145.69;71.99;52351.31;5113126;28;20304;-82
2024/02/25 03:55:59;;;;;;;5.63;2.20;;;;;;;-145.69;71.71;52392.91;5115291;28;20201;-81
2024/02/25 03:58:26;;;;;;;8.10;2.30;;;;;;;-145.69;71.89;52408.75;5114843;28;20280;-81
2024/02/25 04:00:52;;;;;;;7.57;2.50;;;;;;;-145.69;71.17;52367.16;5114304;28;20621;-81
2024/02/25 04:03:19;;;;;;;6.77;1.97;;;;;;;-145.69;71.08;52379.03;5113950;28;20229;-81
2024/02/25 04:05:47;;;;;;;3.87;2.63;;;;;;;-145.69;71.84;52396.84;5114686;28;20662;-81
2024/02/25 04:08:13;;;;;;;4.33;2.50;;;;;;;-145.69;71.35;52345.38;5114441;28;20208;-80
2024/02/25 04:10:40;;;;;;;5.97;2.63;;;;;;;-145.69;70.79;52381.00;5114725;28;20245;-81
2024/02/25 04:13:06;;;;;;;4.37;2.40;;;;;;;-145.69;70.41;52396.84;5115481;27;20263;-80
2024/02/25 04:15:32;;;;;;;3.73;2.53;;;;;;;-145.69;71.07;52383.00;5116312;27;20541;-80
2024/02/25 04:17:59;;;;;;;3.27;2.47;;;;;;;-145.69;71.72;52381.00;5116253;27;20201;-81
2024/02/25 04:20:26;;;;;;;3.47;2.50;;;;;;;-145.69;70.66;52386.97;5115142;27;20197;-80
2024/02/25 04:22:54;;;;;;;3.93;2.90;;;;;;;-145.69;71.02;52388.94;5094699;28;20254;-80
2024/02/25 04:25:20;;;;;;;5.33;3.10;;;;;;;-145.69;71.63;52400.81;5113441;28;20200;-80
2024/02/25 04:27:47;;;;;;;6.97;2.97;;;;;;;-145.69;70.94;52392.91;5114205;27;20265;-79
2024/02/25 04:30:14;;;;;;;4.10;2.93;;;;;;;-145.69;71.17;52392.91;5112639;27;20208;-80
2024/02/25 04:32:43;;;;;;;7.18;3.38;;;;;;;-145.69;72.51;52402.78;5114281;28;20427;-80
2024/02/25 04:35:09;;;;;;;5.77;3.50;;;;;;;-145.69;71.42;52369.13;5117604;27;20193;-82
2024/02/25 04:37:36;;;;;;;6.37;3.50;;;;;;;-145.69;72.10;52369.13;5114667;28;20197;-81
2024/02/25 04:40:05;;;;;;;8.57;3.80;;;;;;;-145.69;72.07;52396.84;5116842;27;20210;-81
2024/02/25 04:42:31;;;;;;;9.27;4.30;;;;;;;-145.69;71.94;52384.97;5114363;28;20229;-81
2024/02/25 04:44:58;;;;;;;8.57;3.77;;;;;;;-145.69;70.89;52377.06;5116144;27;20193;-80
2024/02/25 04:47:24;;;;;;;5.97;3.73;;;;;;;-145.69;72.07;52416.66;5114268;27;20303;-81
2024/02/25 04:49:51;;;;;;;6.67;4.10;;;;;;;-145.69;71.75;52384.97;5114036;27;20201;-81
2024/02/25 04:52:17;;;;;;;6.87;3.90;;;;;;;-145.69;72.13;52388.94;5113912;28;20193;-81
2024/02/25 04:54:43;;;;;;;8.80;4.50;;;;;;;-145.69;72.31;52392.91;5113361;28;20555;-81
2024/02/25 04:57:11;;;;;;;6.33;4.13;;;;;;;-145.69;71.86;52379.03;5113482;28;20542;-82
2024/02/25 04:59:38;;;;;;;6.20;3.77;;;;;;;-145.69;72.07;52420.63;5113409;27;20285;-81
2024/02/25 05:02:04;;;;;;;6.77;3.70;;;;;;;-145.69;71.64;52379.03;5112690;27;20556;-81
2024/02/25 05:04:31;;;;;;;7.07;4.10;;;;;;;-145.69;72.14;52384.97;5111640;27;20205;-82
2024/02/25 05:06:57;;;;;;;6.07;3.97;;;;;;;-145.69;71.20;52396.84;5114091;28;20197;-82
2024/02/25 05:09:24;;;;;;;7.00;3.83;;;;;;;-145.69;72.05;52373.09;5112046;28;20206;-79
2024/02/25 05:11:50;;;;;;;11.67;3.47;;;;;;;-145.69;71.67;52390.91;5128553;27;20204;-79
2024/02/25 05:14:18;;;;;;;5.77;3.33;;;;;;;-145.69;71.03;52373.09;5129536;27;20568;-79
2024/02/25 05:16:45;;;;;;;5.87;3.37;;;;;;;-145.69;70.92;52388.94;5119164;27;20285;-81
2024/02/25 05:19:11;;;;;;;7.73;4.63;;;;;;;-145.69;70.92;52396.84;5122762;27;20243;-81
2024/02/25 05:21:41;;;;;;;12.10;3.73;;;;;;;-145.69;71.67;52396.84;5116353;27;20201;-81
2024/02/25 05:24:07;;;;;;;5.83;3.57;;;;;;;-145.69;71.72;52412.69;5113158;28;20271;-81
2024/02/25 05:26:34;;;;;;;5.73;3.47;;;;;;;-145.69;71.88;52414.69;5112771;28;20198;-81
2024/02/25 05:29:01;;;;;;;7.10;3.73;;;;;;;-145.69;71.50;52390.91;5113321;27;20255;-82
2024/02/25 05:31:28;;;;;;;6.43;4.20;;;;;;;-145.69;71.12;52369.13;5113669;27;20579;-82
2024/02/25 05:33:55;;;;;;;8.70;4.57;;;;;;;-145.69;70.80;52388.94;5116544;27;20205;-81
2024/02/25 05:36:22;;;;;;;7.57;4.30;;;;;;;-145.69;71.17;52400.81;5113711;28;20637;-78
2024/02/25 05:38:50;;;;;;;10.33;4.50;;;;;;;-145.69;71.14;52381.00;5117046;27;20197;-82
2024/02/25 05:41:16;;;;;;;5.93;3.63;;;;;;;-145.69;70.90;52390.91;5112975;28;20197;-82
2024/02/25 05:43:44;;;;;;;8.27;4.20;;;;;;;-145.69;71.89;52390.91;5115313;27;20225;-81
2024/02/25 05:46:11;;;;;;;6.60;3.83;;;;;;;-145.69;70.77;52420.63;5113164;28;20193;-80
2024/02/25 05:48:39;;;;;;;7.23;4.40;;;;;;;-145.69;71.07;52375.06;5113520;27;20209;-82
2024/02/25 05:51:07;;;;;;;8.63;4.70;;;;;;;-145.69;71.96;52422.59;5114628;27;20251;-81
2024/02/25 05:53:33;;;;;;;11.90;4.63;;;;;;;-145.69;71.76;52381.00;5116240;27;20651;-79
2024/02/25 05:56:00;;;;;;;12.33;4.43;;;;;;;-145.69;72.12;52383.00;5113269;28;20201;-82
2024/02/25 05:58:26;;;;;;;8.40;5.00;;;;;;;-145.69;72.39;52396.84;5120907;27;20196;-81
2024/02/25 06:00:53;;;;;;;10.43;4.93;;;;;;;-145.69;73.03;52379.03;5125659;27;20209;-81
2024/02/25 06:03:19;;;;;;;11.17;4.70;;;;;;;-145.69;73.14;52400.81;5112305;28;20225;-80
2024/02/25 06:05:47;;;;;;;8.87;3.87;;;;;;;-145.69;73.18;52390.91;5118947;27;20205;-80
2024/02/25 06:08:13;;;;;;;7.97;4.90;;;;;;;-145.69;72.86;52392.91;5112690;28;20227;-81
2024/02/25 06:10:40;;;;;;;8.10;4.03;;;;;;;-145.69;72.30;52363.19;5112809;28;20831;-81
2024/02/25 06:13:07;;;;;;;8.13;4.10;;;;;;;-145.69;72.57;52394.88;5114305;28;20200;-81
2024/02/25 06:15:33;;;;;;;7.13;3.80;;;;;;;-145.69;72.79;52406.75;5112832;28;20351;-80
2024/02/25 06:17:59;;;;;;;6.90;4.40;;;;;;;-145.69;72.76;52400.81;5112908;28;20197;-81
2024/02/25 06:20:26;;;;;;;9.33;4.60;;;;;;;-145.69;72.68;52365.16;5111748;28;20193;-81
2024/02/25 06:22:54;;;;;;;7.10;3.90;;;;;;;-145.69;72.75;52379.03;5112565;28;20230;-80
2024/02/25 06:25:20;;;;;;;6.53;4.00;;;;;;;-145.69;73.18;52400.81;5112408;28;20216;-80
2024/02/25 06:27:47;;;;;;;10.03;4.00;;;;;;;-145.69;73.07;52400.81;5111190;28;20205;-81
2024/02/25 06:30:14;;;;;;;11.73;4.17;;;;;;;-145.69;72.66;52394.88;5112858;28;20637;-80
2024/02/25 06:32:41;;;;;;;8.87;3.93;;;;;;;-145.69;72.52;52369.13;5119411;28;20193;-81
2024/02/25 06:35:08;;;;;;;8.00;3.70;;;;;;;-145.69;72.27;52408.75;5124854;27;20648;-80
2024/02/25 06:37:34;;;;;;;6.47;3.63;;;;;;;-145.69;72.37;52396.84;5112461;28;20204;-80
2024/02/25 06:40:03;;;;;;;6.90;3.97;;;;;;;-145.69;73.48;52398.84;5112748;28;20197;-81
2024/02/25 06:42:29;;;;;;;7.33;3.47;;;;;;;-145.69;73.43;52410.72;5114727;28;20243;-80
2024/02/25 06:44:56;;;;;;;5.17;3.00;;;;;;;-145.69;72.66;52381.00;5112606;28;20656;-81
2024/02/25 06:47:22;;;;;;;6.13;3.30;;;;;;;-145.69;72.68;52394.88;5117567;28;20200;-80
2024/02/25 06:49:48;;;;;;;6.50;3.07;;;;;;;-145.69;73.02;52379.03;5129833;27;20201;-81
2024/02/25 06:52:15;;;;;;;5.07;3.33;;;;;;;-145.69;72.66;52384.97;5112160;28;20730;-79
2024/02/25 06:54:43;;;;;;;6.73;3.30;;;;;;;-145.69;72.65;52390.91;5112550;28;20194;-80
2024/02/25 06:57:15;;;;;;;6.63;2.43;;;;;;;-145.69;72.19;52369.13;5113754;28;20293;-80
2024/02/25 06:59:41;;;;;;;3.67;2.40;;;;;;;-145.69;72.17;52402.78;5112067;28;20198;-80
2024/02/25 07:02:08;;;;;;;3.57;2.30;;;;;;;-145.69;71.43;52379.03;5117260;28;20200;-81
2024/02/25 07:04:34;;;;;;;4.20;1.70;;;;;;;-145.69;70.99;52373.09;5112570;28;20190;-81
2024/02/25 07:07:01;;;;;;;3.77;2.40;;;;;;;-145.69;70.03;52381.00;5117778;28;20201;-81
2024/02/25 07:09:28;;;;;;;2.17;1.40;;;;;;;-145.69;69.53;52371.13;5112039;28;20190;-80
2024/02/25 07:11:54;;;;;;;1.87;1.63;;;;;;;-145.69;67.95;52384.97;5111506;28;20263;-81
2024/02/25 07:14:23;;;;;;;3.13;1.30;;;;;;;-145.69;68.19;52392.91;5112254;28;20198;-80
2024/02/25 07:16:49;;;;;;;2.67;2.10;;;;;;;-145.69;68.67;52345.38;5115101;28;20193;-80
2024/02/25 07:19:16;;;;;;;5.80;2.23;;;;;;;-145.69;68.80;52339.44;5128047;27;20524;-80
2024/02/25 07:21:42;;;;;;;4.20;2.00;;;;;;;-145.69;68.47;52323.59;5115870;28;20202;-80
2024/02/25 07:24:09;;;;;;;3.10;1.50;;;;;;;-145.69;66.48;52337.44;5111364;28;20225;-81
2024/02/25 07:26:35;;;;;;;3.00;1.40;;;;;;;-145.69;65.80;52365.16;5115647;28;20216;-80
2024/02/25 07:29:02;;;;;;;1.30;1.20;;;;;;;-145.69;67.59;52359.22;5113816;28;20202;-81
2024/02/25 07:31:30;;;;;;;2.10;1.43;;;;;;;-145.69;67.69;52379.03;5115119;28;20200;-81
2024/02/25 07:33:56;;;;;;;2.13;1.17;;;;;;;-145.69;63.79;52375.06;5116729;27;20202;-81
2024/02/25 07:36:23;;;;;;;3.43;1.90;;;;;;;-145.69;63.91;52357.25;5117574;27;20201;-81
2024/02/25 07:38:49;;;;;;;2.60;1.50;;;;;;;-145.69;65.51;52361.22;5115109;28;20590;-81
2024/02/25 07:41:16;;;;;;;2.50;1.60;;;;;;;-145.69;63.51;52371.13;5113733;27;20206;-81
2024/02/25 07:43:42;;;;;;;1.37;1.07;;;;;;;-145.69;62.99;52384.97;5115570;28;20261;-81
2024/02/25 07:46:09;;;;;;;1.57;1.20;;;;;;;-145.69;62.34;52343.38;5116829;27;20212;-80
2024/02/25 07:48:42;;;;;;;3.93;1.80;;;;;;;-145.69;60.79;52331.50;5123438;27;20776;-81
2024/02/25 07:51:08;;;;;;;2.23;1.53;;;;;;;-145.69;60.34;52353.28;5121454;27;20224;-81
2024/02/25 07:53:34;;;;;;;1.97;1.40;;;;;;;-145.69;61.21;52349.31;5129663;27;20209;-82
2024/02/25 07:56:01;;;;;;;2.97;1.20;;;;;;;-145.69;61.91;52315.66;5114375;27;20194;-81
2024/02/25 07:58:27;;;;;;;3.50;1.30;;;;;;;-145.69;60.06;52373.09;5115550;28;20216;-81
2024/02/25 08:00:54;;;;;;;3.13;0.90;;;;;;;-145.69;60.54;52282.00;5114634;28;20594;-82
2024/02/25 08:03:20;;;;;;;1.37;1.10;;;;;;;-145.69;57.33;52331.50;5125283;27;20224;-81
2024/02/25 08:05:49;;;;;;;2.80;1.13;;;;;;;-145.69;56.94;52317.66;5131675;27;20212;-81
2024/02/25 08:08:16;;;;;;;1.43;0.97;;;;;;;-145.69;56.62;52321.59;5118337;27;20205;-81
2024/02/25 08:10:43;;;;;;;1.43;0.90;;;;;;;-145.69;56.07;52341.41;5115905;27;20236;-81
2024/02/25 08:13:09;;;;;;;1.23;1.13;;;;;;;-145.69;56.29;52361.22;5114861;27;22210;-82
2024/02/25 08:15:36;;;;;;;2.30;1.00;;;;;;;-145.69;57.77;52307.75;5114684;27;20194;-82
2024/02/25 08:18:02;;;;;;;1.33;1.13;;;;;;;-145.69;55.05;52301.81;5114264;27;20200;-81
2024/02/25 08:20:29;;;;;;;1.43;1.03;;;;;;;-145.69;57.52;52327.53;5113890;27;20198;-81
2024/02/25 08:22:56;;;;;;;1.40;1.20;;;;;;;-145.69;55.72;52309.72;5120881;27;20225;-80
2024/02/25 08:25:23;;;;;;;6.07;1.23;;;;;;;-145.69;57.22;52297.84;5115007;28;20193;-82
2024/02/25 08:27:49;;;;;;;2.37;1.00;;;;;;;-145.69;55.01;52329.53;5114813;28;20203;-82
2024/02/25 08:30:16;;;;;;;1.03;0.90;;;;;;;-145.69;56.22;52266.16;5114594;28;20197;-81
2024/02/25 08:32:42;;;;;;;1.60;1.00;;;;;;;-145.69;52.53;52329.53;5120558;27;20300;-82
2024/02/25 08:35:11;;;;;;;2.00;0.90;;;;;;;-145.69;56.22;52297.84;5114856;28;20200;-80
2024/02/25 08:37:38;;;;;;;2.60;1.20;;;;;;;-145.69;54.21;52333.47;5113905;28;20197;-82
2024/02/25 08:40:07;;;;;;;0.90;0.90;;;;;;;-145.69;55.97;52325.56;5112722;27;20205;-82
2024/02/25 08:42:33;;;;;;;2.03;0.97;;;;;;;-145.69;53.61;52323.59;5114561;28;20648;-82
2024/02/25 08:45:00;;;;;;;1.90;1.00;;;;;;;-145.69;52.89;52305.75;5114486;28;20225;-82
2024/02/25 08:47:26;;;;;;;2.87;0.90;;;;;;;-145.69;54.13;52287.94;5117604;27;20201;-82
2024/02/25 08:49:53;;;;;;;1.90;1.00;;;;;;;-145.69;53.01;52282.00;5113904;28;20208;-82
2024/02/25 08:52:19;;;;;;;0.83;0.83;;;;;;;-145.69;51.57;52282.00;5114265;28;20201;-82
2024/02/25 08:54:46;;;;;;;0.90;0.70;;;;;;;-145.69;49.66;52297.84;5113355;27;20225;-82
2024/02/25 08:57:14;;;;;;;1.73;1.00;;;;;;;-145.69;48.79;52289.91;5114698;27;20282;-82
2024/02/25 08:59:40;;;;;;;0.97;0.80;;;;;;;-145.69;48.36;52285.97;5113937;28;20285;-82
2024/02/25 09:02:07;;;;;;;3.67;0.97;;;;;;;-145.69;48.22;52262.19;5117862;27;20208;-81
2024/02/25 09:04:34;;;;;;;1.27;0.80;;;;;;;-145.69;48.43;52244.38;5111313;28;20233;-83
2024/02/25 09:07:01;;;;;;;1.23;0.80;;;;;;;-145.69;47.64;52274.06;5118077;27;20304;-82
2024/02/25 09:09:28;;;;;;;1.33;0.90;;;;;;;-145.69;48.31;52297.84;5113218;27;20200;-81
2024/02/25 09:11:55;;;;;;;1.63;0.80;;;;;;;-145.69;46.92;52274.06;5112566;27;20697;-82
2024/02/25 09:14:22;;;;;;;2.13;0.90;;;;;;;-145.69;47.16;52252.28;5119117;27;20197;-82
2024/02/25 09:16:49;;;;;;;1.77;0.93;;;;;;;-145.69;46.00;52297.84;5124506;27;20197;-82
2024/02/25 09:19:16;;;;;;;1.47;0.73;;;;;;;-145.69;47.12;52293.88;5118047;27;20194;-81
2024/02/25 09:21:46;;;;;;;1.50;0.80;;;;;;;-145.69;47.30;52274.06;5113654;28;20204;-81
2024/02/25 09:24:13;;;;;;;1.53;0.83;;;;;;;-145.69;47.24;52297.84;5112486;28;20687;-82
2024/02/25 09:26:41;;;;;;;1.93;1.00;;;;;;;-145.69;46.55;52305.75;5118415;27;20644;-81
2024/02/25 09:29:08;;;;;;;3.27;1.00;;;;;;;-145.69;46.75;52293.88;5126792;27;20189;-81
2024/02/25 09:31:36;;;;;;;2.70;1.20;;;;;;;-145.69;45.23;52258.22;5115891;27;20244;-81
2024/02/25 09:34:08;;;;;;;1.83;0.97;;;;;;;-145.69;45.19;52234.47;5113282;27;20201;-82
2024/02/25 09:36:35;;;;;;;1.30;0.90;;;;;;;-145.69;45.31;52301.81;5112596;28;20208;-81
2024/02/25 09:39:03;;;;;;;3.17;0.90;;;;;;;-145.69;45.54;52246.34;5113233;28;20204;-82
2024/02/25 09:41:30;;;;;;;2.63;0.80;;;;;;;-145.69;45.59;52274.06;5115301;27;20205;-81
2024/02/25 09:43:57;;;;;;;1.87;0.90;;;;;;;-145.69;44.22;52274.06;5113001;28;20229;-82
2024/02/25 09:46:24;;;;;;;1.60;0.97;;;;;;;-145.69;43.84;52299.81;5119003;27;20193;-82
2024/02/25 09:48:53;;;;;;;2.93;0.87;;;;;;;-145.69;44.20;52282.00;5113129;27;20197;-82
2024/02/25 09:51:21;;;;;;;1.43;0.80;;;;;;;-145.69;43.62;52254.28;5112378;28;20261;-82
2024/02/25 09:53:50;;;;;;;0.77;0.60;;;;;;;-145.69;44.46;52274.06;5112982;28;20189;-81
2024/02/25 09:56:16;;;;;;;1.07;0.80;;;;;;;-145.69;44.14;52270.13;5114644;27;20197;-82
2024/02/25 09:58:43;;;;;;;3.37;0.80;;;;;;;-145.69;44.09;52282.00;5111406;27;20202;-82
2024/02/25 10:01:09;;;;;;;1.33;0.77;;;;;;;-145.69;43.52;52282.00;5111080;27;20193;-82
2024/02/25 10:03:36;;;;;;;1.40;1.07;;;;;;;-145.69;43.35;52305.75;5112714;28;20252;-82
2024/02/25 10:06:05;;;;;;;2.83;1.00;;;;;;;-145.69;44.48;52262.19;5113048;28;20210;-83
2024/02/25 10:08:44;;;;;;;2.97;0.70;;;;;;;-145.69;43.47;52246.34;5124251;27;20229;-82
2024/02/25 10:11:12;;;;;;;1.52;0.80;;;;;;;-145.69;43.79;52238.44;5112526;28;20431;-81
2024/02/25 10:13:38;;;;;;;0.77;0.70;;;;;;;-145.69;42.54;52262.19;5112984;28;20687;-81
2024/02/25 10:16:05;;;;;;;0.73;0.60;;;;;;;-145.69;42.31;52266.16;5116534;28;20201;-81
2024/02/25 10:18:32;;;;;;;1.20;0.90;;;;;;;-145.69;43.05;52250.31;5109145;28;20202;-80
2024/02/25 10:21:02;;;;;;;1.13;0.73;;;;;;;-145.69;42.23;52258.22;5110596;28;20193;-80
2024/02/25 10:23:32;;;;;;;2.13;0.97;;;;;;;-145.69;42.03;52248.34;5102705;28;20321;-80
2024/02/25 10:26:11;;;;;;;0.97;0.67;;;;;;;-145.69;41.67;52226.53;5106301;28;20263;-80
2024/02/25 10:28:38;;;;;;;1.40;0.70;;;;;;;-145.69;41.57;52250.31;5106604;28;20212;-80
2024/02/25 10:31:05;;;;;;;1.20;0.70;;;;;;;-145.69;40.56;52242.38;5103922;28;20204;-80
2024/02/25 10:33:31;;;;;;;1.37;0.80;;;;;;;-145.69;39.85;52278.03;5102980;28;20206;-81
2024/02/25 10:36:06;;;;;;;0.53;0.53;;;;;;;-145.69;40.31;52214.66;5111356;28;20250;-81
2024/02/25 10:38:36;;;;;;;0.60;0.60;;;;;;;-145.69;39.59;52212.69;5108326;28;20200;-81
2024/02/25 10:41:03;;;;;;;1.17;0.53;;;;;;;-145.69;40.04;52246.34;5109979;28;20192;-82
2024/02/25 10:43:33;;;;;;;2.00;0.60;;;;;;;-145.69;40.52;52250.31;5109426;28;20205;-81
2024/02/25 10:46:01;;;;;;;0.50;0.50;;;;;;;-145.69;39.40;52230.50;5106657;28;20197;-81
2024/02/25 10:48:30;;;;;;;1.23;0.50;;;;;;;-145.69;40.25;52222.59;5109341;28;20463;-82
2024/02/25 10:51:00;;;;;;;1.07;0.70;;;;;;;-145.69;40.05;52248.34;5110846;28;20699;-81
2024/02/25 10:53:29;;;;;;;0.98;0.70;;;;;;;-145.69;39.55;52222.59;5108925;28;20237;-82
2024/02/25 10:55:59;;;;;;;0.87;0.50;;;;;;;-145.69;38.42;52246.34;5109450;28;20194;-82
2024/02/25 10:58:27;;;;;;;0.70;0.70;;;;;;;-145.69;38.19;52226.53;5109433;28;20209;-81
2024/02/25 11:00:55;;;;;;;0.40;0.40;;;;;;;-145.69;39.51;52214.66;5110526;28;20202;-81
2024/02/25 11:03:22;;;;;;;5.37;0.60;;;;;;;-145.69;39.16;52254.28;5109325;28;20251;-81
2024/02/25 11:05:49;;;;;;;1.03;0.50;;;;;;;-145.69;39.20;52216.66;5115326;28;20194;-82
2024/02/25 11:08:30;;;;;;;0.60;0.60;;;;;;;-145.69;37.97;52214.66;5107828;28;20205;-80
2024/02/25 11:10:59;;;;;;;0.90;0.60;;;;;;;-145.69;38.22;52214.66;5114510;28;20194;-83
2024/02/25 11:13:26;;;;;;;0.67;0.60;;;;;;;-145.69;36.96;52200.81;5113211;28;20205;-81
2024/02/25 11:15:55;;;;;;;1.23;0.60;;;;;;;-145.69;37.90;52194.88;5116667;28;20297;-81